createdAt,value
2023-04-09T00:01:10.375Z,4.72
2023-04-09T00:03:37.950Z,5.47
2023-04-09T00:06:05.503Z,3.95
2023-04-09T00:08:32.146Z,4.68
2023-04-09T00:10:59.783Z,4.10
2023-04-09T00:13:38.576Z,5.18
2023-04-09T00:16:07.507Z,5.20
2023-04-09T00:18:34.315Z,5.20
2023-04-09T00:21:00.982Z,4.93
2023-04-09T00:23:27.735Z,5.30
2023-04-09T00:25:54.334Z,5.45
2023-04-09T00:28:20.954Z,5.57
2023-04-09T00:30:47.534Z,5.05
2023-04-09T00:33:14.159Z,4.75
2023-04-09T00:35:40.869Z,4.55
2023-04-09T00:38:07.711Z,5.28
2023-04-09T00:40:34.312Z,4.85
2023-04-09T00:43:00.916Z,4.47
2023-04-09T00:45:27.730Z,5.05
2023-04-09T00:47:54.577Z,5.10
2023-04-09T00:50:21.650Z,4.63
2023-04-09T00:52:48.433Z,4.93
2023-04-09T00:55:15.335Z,5.25
2023-04-09T00:57:41.974Z,4.93
2023-04-09T01:00:09.272Z,5.05
2023-04-09T01:02:36.126Z,5.93
2023-04-09T01:05:03.473Z,4.57
2023-04-09T01:07:38.139Z,4.28
2023-04-09T01:10:22.493Z,5.28
2023-04-09T01:13:09.041Z,5.55
2023-04-09T01:15:46.873Z,6.10
2023-04-09T01:18:20.890Z,5.40
2023-04-09T01:21:07.150Z,6.15
2023-04-09T01:23:55.278Z,5.25
2023-04-09T01:26:56.475Z,5.03
2023-04-09T01:29:30.489Z,5.43
2023-04-09T01:31:59.448Z,5.05
2023-04-09T01:34:28.672Z,5.15
2023-04-09T01:36:58.091Z,4.65
2023-04-09T01:39:26.250Z,5.13
2023-04-09T01:41:53.783Z,4.75
2023-04-09T01:44:21.253Z,4.68
2023-04-09T01:46:49.581Z,6.20
2023-04-09T01:49:18.064Z,5.85
2023-04-09T01:54:11.589Z,5.93
2023-04-09T01:56:45.869Z,4.85
2023-04-09T01:59:13.402Z,5.32
2023-04-09T02:02:06.844Z,5.38
2023-04-09T02:04:37.013Z,5.25
2023-04-09T02:07:23.455Z,5.03
2023-04-09T02:09:53.248Z,5.07
2023-04-09T02:12:21.679Z,4.68
2023-04-09T02:14:51.905Z,5.05
2023-04-09T02:17:19.590Z,5.60
2023-04-09T02:19:47.759Z,4.63
2023-04-09T02:24:41.912Z,4.75
2023-04-09T02:27:08.889Z,4.68
2023-04-09T02:29:35.579Z,4.35
2023-04-09T02:32:02.317Z,4.90
2023-04-09T02:34:29.155Z,3.97
2023-04-09T02:36:55.862Z,4.30
2023-04-09T02:39:22.805Z,5.53
2023-04-09T02:41:49.434Z,4.25
2023-04-09T02:44:16.183Z,4.95
2023-04-09T02:46:45.064Z,4.90
2023-04-09T02:49:11.824Z,4.85
2023-04-09T02:51:38.589Z,4.88
2023-04-09T02:54:05.340Z,4.80
2023-04-09T02:56:32.094Z,5.25
2023-04-09T02:58:58.730Z,4.38
2023-04-09T03:01:25.411Z,5.75
2023-04-09T03:03:52.689Z,6.65
2023-04-09T03:06:19.379Z,6.25
2023-04-09T03:08:45.995Z,6.72
2023-04-09T03:11:12.676Z,5.38
2023-04-09T03:13:39.275Z,4.80
2023-04-09T03:16:06.345Z,5.47
2023-04-09T03:18:33.029Z,5.60
2023-04-09T03:20:59.738Z,4.90
2023-04-09T03:23:28.584Z,5.20
2023-04-09T03:26:05.853Z,5.72
2023-04-09T03:28:40.130Z,5.28
2023-04-09T03:31:07.332Z,6.10
2023-04-09T03:33:37.514Z,5.93
2023-04-09T03:36:04.512Z,6.10
2023-04-09T03:38:51.396Z,5.23
2023-04-09T03:41:27.445Z,4.75
2023-04-09T03:43:56.242Z,4.78
2023-04-09T03:46:26.696Z,5.32
2023-04-09T03:48:54.755Z,4.38
2023-04-09T03:51:24.335Z,5.32
2023-04-09T03:53:55.931Z,6.15
2023-04-09T03:56:22.828Z,5.65
2023-04-09T03:58:49.589Z,6.55
2023-04-09T04:01:17.321Z,6.35
2023-04-09T04:03:53.624Z,6.30
2023-04-09T04:06:25.527Z,6.05
2023-04-09T04:09:09.947Z,5.50
2023-04-09T04:11:48.834Z,5.78
2023-04-09T04:14:17.124Z,6.07
2023-04-09T04:16:47.469Z,5.47
2023-04-09T04:19:18.298Z,5.78
2023-04-09T04:21:48.008Z,7.25
2023-04-09T04:24:15.503Z,7.72
2023-04-09T04:26:42.162Z,8.45
2023-04-09T04:29:11.535Z,9.60
2023-04-09T04:31:50.617Z,8.02
2023-04-09T04:34:20.470Z,9.05
2023-04-09T04:36:54.121Z,8.35
2023-04-09T04:39:21.042Z,11.30
2023-04-09T04:41:55.566Z,8.82
2023-04-09T04:44:25.497Z,9.77
2023-04-09T04:46:59.114Z,8.43
2023-04-09T04:49:26.197Z,8.90
2023-04-09T04:51:52.807Z,8.75
2023-04-09T04:54:19.438Z,7.70
2023-04-09T04:56:51.160Z,8.65
2023-04-09T04:59:39.396Z,10.73
2023-04-09T05:02:08.914Z,8.82
2023-04-09T05:04:46.135Z,7.18
2023-04-09T05:07:15.918Z,7.75
2023-04-09T05:09:49.452Z,8.77
2023-04-09T05:12:15.989Z,8.27
2023-04-09T05:14:42.699Z,8.20
2023-04-09T05:17:09.329Z,8.32
2023-04-09T05:19:44.505Z,11.45
2023-04-09T05:24:39.343Z,9.32
2023-04-09T05:27:06.255Z,8.70
2023-04-09T05:29:33.081Z,10.35
2023-04-09T05:32:00.234Z,8.20
2023-04-09T05:34:34.675Z,8.98
2023-04-09T05:37:01.358Z,6.95
2023-04-09T05:39:28.026Z,6.45
2023-04-09T05:41:55.588Z,5.88
2023-04-09T05:44:22.132Z,7.00
2023-04-09T05:46:51.084Z,6.88
2023-04-09T05:49:22.478Z,5.78
2023-04-09T05:51:52.484Z,7.32
2023-04-09T05:54:25.081Z,6.43
2023-04-09T05:56:51.824Z,7.68
2023-04-09T05:59:18.719Z,8.82
2023-04-09T06:01:45.349Z,10.07
2023-04-09T06:04:12.282Z,5.80
2023-04-09T06:06:39.404Z,6.03
2023-04-09T06:09:06.038Z,6.60
2023-04-09T06:11:32.696Z,5.60
2023-04-09T06:14:00.380Z,8.43
2023-04-09T06:16:26.991Z,7.68
2023-04-09T06:18:53.563Z,7.05
2023-04-09T06:21:20.535Z,6.13
2023-04-09T06:23:47.082Z,6.07
2023-04-09T06:26:13.680Z,6.15
2023-04-09T06:28:40.243Z,6.18
2023-04-09T06:31:06.926Z,6.60
2023-04-09T06:33:33.548Z,7.82
2023-04-09T06:36:00.244Z,7.05
2023-04-09T06:38:26.942Z,6.22
2023-04-09T06:40:53.510Z,6.10
2023-04-09T06:43:20.121Z,5.70
2023-04-09T06:45:51.327Z,5.38
2023-04-09T06:48:18.047Z,6.10
2023-04-09T06:50:45.183Z,5.68
2023-04-09T06:53:12.001Z,7.25
2023-04-09T06:55:38.585Z,6.45
2023-04-09T06:58:05.160Z,6.03
2023-04-09T07:00:31.773Z,6.03
2023-04-09T07:02:58.603Z,6.80
2023-04-09T07:05:25.383Z,7.53
2023-04-09T07:07:51.944Z,6.00
2023-04-09T07:10:18.585Z,6.28
2023-04-09T07:12:45.229Z,6.57
2023-04-09T07:15:11.891Z,5.63
2023-04-09T07:17:38.596Z,6.60
2023-04-09T07:20:05.833Z,5.93
2023-04-09T07:22:32.468Z,7.07
2023-04-09T07:24:59.099Z,6.10
2023-04-09T07:27:27.590Z,5.95
2023-04-09T07:29:58.183Z,6.40
2023-04-09T07:32:25.928Z,6.13
2023-04-09T07:34:53.335Z,7.30
2023-04-09T07:37:20.171Z,6.93
2023-04-09T07:39:47.539Z,6.28
2023-04-09T07:42:14.517Z,6.40
2023-04-09T07:44:41.171Z,6.32
2023-04-09T07:47:08.833Z,5.78
2023-04-09T07:49:36.967Z,5.70
2023-04-09T07:52:04.713Z,6.22
2023-04-09T07:54:31.636Z,6.53
2023-04-09T07:56:58.774Z,6.90
2023-04-09T07:59:25.425Z,7.75
2023-04-09T08:01:52.132Z,7.43
2023-04-09T08:04:18.967Z,5.85
2023-04-09T08:06:45.744Z,7.20
2023-04-09T08:09:12.365Z,7.75
2023-04-09T08:11:38.936Z,7.68
2023-04-09T08:14:05.513Z,6.53
2023-04-09T08:16:32.102Z,8.02
2023-04-09T08:18:58.682Z,7.70
2023-04-09T08:21:25.323Z,9.02
2023-04-09T08:23:51.969Z,7.03
2023-04-09T08:26:18.673Z,6.93
2023-04-09T08:28:45.244Z,5.97
2023-04-09T08:31:11.800Z,6.25
2023-04-09T08:33:38.453Z,8.27
2023-04-09T08:36:09.035Z,6.25
2023-04-09T08:38:35.681Z,7.25
2023-04-09T08:41:02.448Z,7.68
2023-04-09T08:43:47.227Z,6.57
2023-04-09T08:48:45.857Z,6.55
2023-04-09T08:51:20.216Z,5.75
2023-04-09T08:53:48.242Z,5.90
2023-04-09T08:56:14.926Z,6.88
2023-04-09T08:58:45.332Z,5.88
2023-04-09T09:01:27.004Z,5.53
2023-04-09T09:03:54.895Z,4.65
2023-04-09T09:06:22.750Z,6.15
2023-04-09T09:09:06.672Z,5.40
2023-04-09T09:11:35.572Z,6.10
2023-04-09T09:14:04.713Z,7.85
2023-04-09T09:16:31.811Z,6.30
2023-04-09T09:18:59.439Z,6.43
2023-04-09T09:21:27.508Z,5.80
2023-04-09T09:23:54.728Z,4.95
2023-04-09T09:26:23.792Z,5.70
2023-04-09T09:28:51.599Z,5.95
2023-04-09T09:31:20.396Z,5.32
2023-04-09T09:33:48.208Z,5.15
2023-04-09T09:36:15.680Z,6.72
2023-04-09T09:38:53.756Z,5.22
2023-04-09T09:41:21.363Z,5.68
2023-04-09T09:43:48.160Z,5.70
2023-04-09T09:46:16.381Z,5.88
2023-04-09T09:51:11.602Z,5.68
2023-04-09T09:53:42.352Z,5.40
2023-04-09T09:56:15.802Z,5.10
2023-04-09T09:58:48.927Z,6.07
2023-04-09T10:01:17.709Z,5.72
2023-04-09T10:03:45.877Z,5.43
2023-04-09T10:08:42.124Z,6.72
2023-04-09T10:11:08.958Z,5.38
2023-04-09T10:13:39.499Z,6.20
2023-04-09T10:16:07.380Z,5.35
2023-04-09T10:18:34.737Z,5.80
2023-04-09T10:21:17.505Z,6.30
2023-04-09T10:23:48.301Z,6.47
2023-04-09T10:26:14.988Z,6.60
2023-04-09T10:28:43.156Z,5.65
2023-04-09T10:31:09.935Z,6.53
2023-04-09T10:33:38.177Z,5.03
2023-04-09T10:36:11.628Z,6.65
2023-04-09T10:38:46.392Z,8.50
2023-04-09T10:41:22.330Z,6.80
2023-04-09T10:43:49.155Z,7.60
2023-04-09T10:46:31.644Z,6.68
2023-04-09T10:49:21.720Z,6.65
2023-04-09T10:51:52.208Z,7.15
2023-04-09T10:54:33.948Z,7.07
2023-04-09T10:57:22.328Z,7.45
2023-04-09T10:59:54.315Z,6.18
2023-04-09T11:02:26.697Z,5.30
2023-04-09T11:05:17.689Z,6.65
2023-04-09T11:07:47.479Z,6.43
2023-04-09T11:10:14.153Z,5.88
2023-04-09T11:12:40.802Z,8.52
2023-04-09T11:15:16.315Z,14.20
2023-04-09T11:17:43.420Z,9.68
2023-04-09T11:20:11.084Z,8.95
2023-04-09T11:22:38.651Z,8.38
2023-04-09T11:25:05.802Z,9.15
2023-04-09T11:27:37.535Z,7.88
2023-04-09T11:30:04.730Z,6.88
2023-04-09T11:32:31.642Z,7.38
2023-04-09T11:34:58.203Z,7.72
2023-04-09T11:37:24.838Z,7.80
2023-04-09T11:39:51.712Z,7.43
2023-04-09T11:42:18.320Z,7.50
2023-04-09T11:44:45.485Z,7.88
2023-04-09T11:47:13.701Z,7.00
2023-04-09T11:52:07.454Z,5.97
2023-04-09T11:54:34.733Z,7.40
2023-04-09T11:57:03.922Z,8.00
2023-04-09T11:59:31.057Z,6.57
2023-04-09T12:01:58.576Z,6.95
2023-04-09T12:04:25.434Z,6.82
2023-04-09T12:06:57.060Z,7.75
2023-04-09T12:09:23.628Z,7.70
2023-04-09T12:11:50.356Z,7.00
2023-04-09T12:14:18.423Z,6.45
2023-04-09T12:19:13.340Z,8.93
2023-04-09T12:21:49.042Z,6.78
2023-04-09T12:24:19.597Z,8.18
2023-04-09T12:26:47.191Z,7.80
2023-04-09T12:29:19.492Z,7.43
2023-04-09T12:31:47.162Z,6.05
2023-04-09T12:34:14.076Z,7.28
2023-04-09T12:36:41.350Z,8.43
2023-04-09T12:39:09.594Z,7.68
2023-04-09T12:41:36.188Z,7.10
2023-04-09T12:44:02.862Z,6.68
2023-04-09T12:46:29.611Z,5.95
2023-04-09T12:48:56.209Z,8.65
2023-04-09T12:51:22.824Z,7.22
2023-04-09T12:53:49.495Z,8.23
2023-04-09T12:56:16.169Z,8.20
2023-04-09T12:58:42.830Z,7.80
2023-04-09T13:01:09.540Z,6.47
2023-04-09T13:03:36.450Z,6.53
2023-04-09T13:06:03.401Z,8.55
2023-04-09T13:08:29.970Z,10.68
2023-04-09T13:10:56.656Z,8.27
2023-04-09T13:13:23.317Z,6.75
2023-04-09T13:15:50.038Z,7.13
2023-04-09T13:18:16.660Z,8.32
2023-04-09T13:20:43.341Z,6.15
2023-04-09T13:23:09.959Z,7.88
2023-04-09T13:25:36.636Z,6.40
2023-04-09T13:28:03.249Z,5.63
2023-04-09T13:30:30.020Z,7.07
2023-04-09T13:32:56.746Z,6.85
2023-04-09T13:35:23.656Z,6.90
2023-04-09T13:37:50.471Z,6.68
2023-04-09T13:40:17.159Z,6.32
2023-04-09T13:42:43.800Z,7.00
2023-04-09T13:45:10.463Z,7.80
2023-04-09T13:47:37.132Z,6.72
2023-04-09T13:50:04.267Z,9.25
2023-04-09T13:52:32.137Z,9.23
2023-04-09T13:54:58.759Z,6.05
2023-04-09T13:57:25.306Z,7.43
2023-04-09T13:59:51.939Z,6.68
2023-04-09T14:02:18.700Z,7.47
2023-04-09T14:04:45.875Z,6.03
2023-04-09T14:07:12.500Z,6.22
2023-04-09T14:09:39.122Z,5.97
2023-04-09T14:12:05.767Z,6.28
2023-04-09T14:14:32.334Z,6.20
2023-04-09T14:16:58.978Z,6.93
2023-04-09T14:19:25.565Z,7.00
2023-04-09T14:21:52.523Z,8.68
2023-04-09T14:24:19.082Z,5.90
2023-04-09T14:26:45.675Z,6.00
2023-04-09T14:29:12.276Z,6.22
2023-04-09T14:31:39.269Z,5.72
2023-04-09T14:34:05.981Z,5.63
2023-04-09T14:36:32.552Z,6.03
2023-04-09T14:38:59.362Z,7.00
2023-04-09T14:41:26.330Z,6.30
2023-04-09T14:43:52.904Z,6.25
2023-04-09T14:46:19.531Z,6.72
2023-04-09T14:48:46.215Z,5.53
2023-04-09T14:51:12.940Z,5.72
2023-04-09T14:53:39.531Z,5.32
2023-04-09T14:56:06.607Z,4.88
2023-04-09T14:58:33.203Z,4.85
2023-04-09T15:00:59.847Z,3.95
2023-04-09T15:03:26.614Z,4.07
2023-04-09T15:05:53.444Z,4.03
2023-04-09T15:08:20.056Z,5.20
2023-04-09T15:10:46.619Z,6.03
2023-04-09T15:13:13.169Z,6.28
2023-04-09T15:15:43.042Z,4.72
2023-04-09T15:18:09.781Z,4.63
2023-04-09T15:20:37.776Z,4.75
2023-04-09T15:23:04.505Z,4.60
2023-04-09T15:25:31.359Z,4.35
2023-04-09T15:27:58.239Z,3.92
2023-04-09T15:30:25.034Z,3.90
2023-04-09T15:32:51.722Z,3.28
2023-04-09T15:35:18.545Z,4.72
2023-04-09T15:37:51.255Z,4.88
2023-04-09T15:40:18.973Z,3.90
2023-04-09T15:42:45.551Z,4.35
2023-04-09T15:45:21.806Z,4.00
2023-04-09T15:47:48.407Z,3.85
2023-04-09T15:50:15.067Z,3.38
2023-04-09T15:52:41.918Z,5.22
2023-04-09T15:55:09.265Z,4.18
2023-04-09T15:57:36.095Z,3.40
2023-04-09T16:00:02.809Z,3.60
2023-04-09T16:02:31.397Z,3.40
2023-04-09T16:04:58.184Z,3.10
2023-04-09T16:07:24.789Z,2.67
2023-04-09T16:09:51.437Z,2.67
2023-04-09T16:12:18.206Z,2.47
2023-04-09T16:14:44.813Z,3.13
2023-04-09T16:17:11.597Z,3.10
2023-04-09T16:19:38.582Z,3.55
2023-04-09T16:22:05.174Z,3.05
2023-04-09T16:24:31.734Z,3.08
2023-04-09T16:26:58.391Z,4.38
2023-04-09T16:29:24.983Z,4.28
2023-04-09T16:31:51.586Z,3.97
2023-04-09T16:34:18.251Z,3.10
2023-04-09T16:36:45.017Z,3.10
2023-04-09T16:39:11.832Z,2.88
2023-04-09T16:41:38.570Z,3.67
2023-04-09T16:44:05.374Z,2.78
2023-04-09T16:46:32.111Z,2.75
2023-04-09T16:48:58.761Z,2.70
2023-04-09T16:51:25.456Z,3.47
2023-04-09T16:53:52.072Z,4.57
2023-04-09T16:56:18.873Z,4.10
2023-04-09T16:58:45.831Z,4.45
2023-04-09T17:01:12.503Z,4.57
2023-04-09T17:03:39.411Z,4.68
2023-04-09T17:06:06.367Z,4.80
2023-04-09T17:08:33.022Z,4.30
2023-04-09T17:10:59.647Z,4.90
2023-04-09T17:13:26.219Z,4.28
2023-04-09T17:15:52.787Z,4.50
2023-04-09T17:18:19.337Z,4.85
2023-04-09T17:20:45.911Z,5.13
2023-04-09T17:23:12.575Z,4.88
2023-04-09T17:25:39.167Z,4.20
2023-04-09T17:28:05.784Z,5.55
2023-04-09T17:30:32.928Z,5.07
2023-04-09T17:32:59.910Z,4.65
2023-04-09T17:35:26.671Z,4.85
2023-04-09T17:37:53.359Z,4.40
2023-04-09T17:40:19.988Z,5.22
2023-04-09T17:42:46.547Z,4.63
2023-04-09T17:45:13.207Z,3.95
2023-04-09T17:47:39.852Z,3.78
2023-04-09T17:50:07.671Z,3.67
2023-04-09T17:52:34.641Z,4.43
2023-04-09T17:55:01.213Z,3.08
2023-04-09T17:57:27.813Z,3.25
2023-04-09T17:59:54.358Z,3.38
2023-04-09T18:02:21.151Z,3.50
2023-04-09T18:04:48.236Z,3.65
2023-04-09T18:07:14.963Z,3.47
2023-04-09T18:09:41.532Z,3.35
2023-04-09T18:12:08.167Z,3.20
2023-04-09T18:14:34.732Z,3.40
2023-04-09T18:17:01.430Z,3.70
2023-04-09T18:19:28.054Z,4.45
2023-04-09T18:21:54.685Z,3.70
2023-04-09T18:24:21.294Z,4.30
2023-04-09T18:26:47.871Z,3.88
2023-04-09T18:29:14.693Z,5.50
2023-04-09T18:31:41.333Z,4.80
2023-04-09T18:34:08.011Z,4.53
2023-04-09T18:36:34.727Z,4.57
2023-04-09T18:39:01.496Z,4.45
2023-04-09T18:41:28.129Z,4.40
2023-04-09T18:43:55.071Z,4.78
2023-04-09T18:46:21.746Z,4.72
2023-04-09T18:48:48.484Z,4.00
2023-04-09T18:51:15.088Z,7.28
2023-04-09T18:53:42.111Z,10.30
2023-04-09T18:56:09.124Z,8.75
2023-04-09T18:58:36.312Z,8.77
2023-04-09T19:01:12.433Z,7.65
2023-04-09T19:03:40.315Z,6.30
2023-04-09T19:08:41.187Z,4.35
2023-04-09T19:11:08.048Z,4.53
2023-04-09T19:13:35.417Z,5.28
2023-04-09T19:16:02.321Z,4.83
2023-04-09T19:18:29.514Z,5.05
2023-04-09T19:20:56.118Z,4.82
2023-04-09T19:23:22.714Z,5.22
2023-04-09T19:25:53.528Z,4.85
2023-04-09T19:28:20.116Z,5.72
2023-04-09T19:30:46.861Z,4.50
2023-04-09T19:33:13.527Z,5.38
2023-04-09T19:35:40.172Z,4.75
2023-04-09T19:38:07.685Z,4.03
2023-04-09T19:40:34.307Z,4.35
2023-04-09T19:43:00.989Z,5.10
2023-04-09T19:45:28.158Z,4.40
2023-04-09T19:47:55.933Z,5.32
2023-04-09T19:50:23.008Z,5.47
2023-04-09T19:52:49.724Z,5.97
2023-04-09T19:55:16.298Z,6.20
2023-04-09T19:57:42.962Z,6.80
2023-04-09T20:00:10.078Z,7.07
2023-04-09T20:02:40.320Z,6.85
2023-04-09T20:05:08.517Z,6.57
2023-04-09T20:10:04.551Z,6.45
2023-04-09T20:12:31.198Z,6.38
2023-04-09T20:14:58.209Z,6.22
2023-04-09T20:17:25.181Z,5.90
2023-04-09T20:19:51.868Z,6.53
2023-04-09T20:22:18.494Z,7.93
2023-04-09T20:24:45.184Z,8.27
2023-04-09T20:27:11.728Z,7.15
2023-04-09T20:29:38.438Z,6.50
2023-04-09T20:32:05.376Z,6.10
2023-04-09T20:34:32.056Z,6.50
2023-04-09T20:36:58.880Z,7.30
2023-04-09T20:39:25.462Z,6.35
2023-04-09T20:41:52.508Z,6.80
2023-04-09T20:44:19.398Z,6.20
2023-04-09T20:46:46.057Z,7.00
2023-04-09T20:49:12.791Z,6.78
2023-04-09T20:51:39.475Z,7.18
2023-04-09T20:54:06.226Z,6.68
2023-04-09T20:56:32.902Z,7.15
2023-04-09T20:58:59.480Z,7.03
2023-04-09T21:01:26.212Z,6.18
2023-04-09T21:03:54.070Z,6.43
2023-04-09T21:06:20.914Z,7.18
2023-04-09T21:08:47.716Z,7.00
2023-04-09T21:11:14.320Z,6.70
2023-04-09T21:13:53.809Z,7.22
2023-04-09T21:16:21.885Z,7.03
2023-04-09T21:18:48.606Z,7.43
2023-04-09T21:21:15.213Z,7.20
2023-04-09T21:23:41.819Z,6.72
2023-04-09T21:26:08.429Z,7.75
2023-04-09T21:28:35.002Z,6.88
2023-04-09T21:31:01.681Z,7.30
2023-04-09T21:33:30.034Z,7.22
2023-04-09T21:35:57.234Z,5.93
2023-04-09T21:38:24.066Z,7.20
2023-04-09T21:40:50.865Z,7.20
2023-04-09T21:43:17.446Z,7.18
2023-04-09T21:45:44.263Z,7.40
2023-04-09T21:48:12.076Z,7.88
2023-04-09T21:50:38.806Z,7.07
2023-04-09T21:53:05.431Z,7.25
2023-04-09T21:55:32.064Z,7.90
2023-04-09T21:57:58.645Z,7.45
2023-04-09T22:00:25.258Z,7.65
2023-04-09T22:02:52.185Z,7.10
2023-04-09T22:05:19.374Z,7.28
2023-04-09T22:07:48.353Z,7.00
2023-04-09T22:10:15.175Z,7.88
2023-04-09T22:12:42.204Z,7.07
2023-04-09T22:15:09.507Z,7.45
2023-04-09T22:17:36.195Z,7.57
2023-04-09T22:20:02.937Z,6.65
2023-04-09T22:22:31.325Z,8.05
2023-04-09T22:24:58.116Z,6.80
2023-04-09T22:27:24.952Z,6.53
2023-04-09T22:29:51.841Z,7.53
2023-04-09T22:32:18.523Z,6.88
2023-04-09T22:34:45.537Z,8.23
2023-04-09T22:37:12.540Z,7.75
2023-04-09T22:39:39.395Z,7.22
2023-04-09T22:42:06.517Z,6.95
2023-04-09T22:44:33.097Z,7.50
2023-04-09T22:46:59.945Z,7.13
2023-04-09T22:49:26.909Z,7.45
2023-04-09T22:51:53.561Z,7.65
2023-04-09T22:54:20.522Z,7.68
2023-04-09T22:56:47.296Z,7.93
2023-04-09T22:59:14.198Z,7.65
2023-04-09T23:01:40.946Z,9.60
2023-04-09T23:04:07.711Z,8.40
2023-04-09T23:06:34.350Z,8.25
2023-04-09T23:09:01.087Z,9.15
2023-04-09T23:11:31.031Z,8.65
2023-04-09T23:13:57.826Z,7.72
2023-04-09T23:16:24.769Z,8.98
2023-04-09T23:18:51.752Z,7.55
2023-04-09T23:21:18.731Z,7.45
2023-04-09T23:23:45.697Z,8.00
2023-04-09T23:26:12.588Z,7.53
2023-04-09T23:28:39.575Z,7.45
2023-04-09T23:31:06.394Z,8.02
2023-04-09T23:33:33.083Z,6.63
2023-04-09T23:35:59.727Z,7.15
2023-04-09T23:38:26.534Z,7.75
2023-04-09T23:40:53.224Z,7.78
2023-04-09T23:43:19.828Z,6.40
2023-04-09T23:45:46.550Z,7.72
2023-04-09T23:48:13.150Z,6.82
2023-04-09T23:50:40.949Z,7.68
2023-04-09T23:53:08.112Z,7.30
2023-04-09T23:55:35.286Z,7.23
2023-04-09T23:58:02.020Z,9.00
